ADDS METAR Data INFO
IDs: Format: Raw Decoded Include TAF

Data at: 2256 UTC 22 Jun 2018

KDTS 222253Z 25009G17KT 10SM CLR 31/24 A2989 RMK AO2 SLP121 T03060239 $
KDTS 222153Z 24010G18KT 10SM FEW025 31/24 A2988 RMK AO2 SLP119 T03060239 $
KDTS 222053Z 24008G14KT 200V280 10SM CLR 31/24 A2990 RMK AO2 SLP123 T03110239 58016 $
KDTS 221953Z 23008KT 10SM CLR 31/24 A2992 RMK AO2 SLP130 T03110244 $
KDTS 221853Z VRB06KT 10SM CLR 32/24 A2994 RMK AO2 SLP137 T03170244 $
KDTS 221753Z 24008G16KT 210V280 10SM CLR 31/23 A2994 RMK AO2 SLP139 T03110233 10322 20283 53000 $
KDTS 221653Z 24009G15KT 10SM CLR 31/23 A2994 RMK AO2 SLP139 T03110233 $
KDTS 221553Z 28007KT 10SM CLR 31/23 A2994 RMK AO2 SLP138 T03110233 $
KDTS 221453Z VRB04KT 10SM CLR 31/23 A2994 RMK AO2 SLP139 T03060233 51004 $
KDTS 221353Z 26005KT 10SM CLR 29/24 A2994 RMK AO2 LTG DSNT E SLP138 T02940239 $
KDTS 221253Z 26008KT 10SM CLR 29/24 A2994 RMK AO2 LTG DSNT SE SLP138 T02890244 $
KDTS 221230Z 26008KT 220V290 10SM CLR 28/24 A2993 RMK AO2 LTG DSNT E AND SE T02830244 $
KDTS 221215Z 27007KT 10SM VCTS CLR 28/24 A2994 RMK AO2 LTG DSNT E-S T02830244 $
KDTS 221153Z 27006KT 10SM CLR 28/24 A2993 RMK AO2 LTG DSNT SE SLP134 T02830244 10283 20267 51014 $
KDTS 221139Z VRB06KT 10SM VCTS FEW045 28/24 A2992 RMK AO2 LTG DSNT E-S T02780244 $
KDTS 221053Z AUTO 26005KT 10SM FEW047 28/24 A2992 RMK AO2 SLP131 T02830244 $
KDTS 220953Z AUTO 26006KT 10SM FEW022 SCT030 28/24 A2990 RMK AO2 SLP125 T02830244 $
KDTS 220853Z AUTO 25005KT 10SM CLR 28/24 A2989 RMK AO2 SLP120 T02830244 53000 $
KDTS 220817Z AUTO VRB04KT 10SM SCT023 BKN032 28/25 A2988 RMK AO2 T02830250 $
KDTS 220806Z AUTO VRB05KT 10SM BKN023 BKN030 28/25 A2988 RMK AO2 T02830250 $
KDTS 220753Z AUTO 25004KT 10SM SCT023 28/24 A2988 RMK AO2 SLP118 T02780244 $
KDTS 220653Z AUTO VRB03KT 10SM CLR 28/23 A2988 RMK AO2 SLP117 T02780233 $
KDTS 220553Z AUTO 00000KT 10SM CLR 28/22 A2989 RMK AO2 SLP120 T02780222 10294 20278 403220278 58011 $
KDTS 220453Z AUTO 00000KT 10SM FEW026 28/23 A2991 RMK AO2 SLP126 T02830228 $
KDTS 220353Z AUTO VRB03KT 10SM CLR 29/23 A2991 RMK AO2 SLP128 T02890233 $
KDTS 220314Z AUTO 27005KT 10SM SCT028 29/24 A2992 RMK AO2 T02890239 $
KDTS 220304Z AUTO VRB04KT 10SM BKN028 29/24 A2992 RMK AO2 T02890239 $
KDTS 220253Z AUTO 26007KT 230V300 10SM SCT026 29/23 A2992 RMK AO2 SLP131 T02890233 53005 $
KDTS 220153Z 25006KT 10SM CLR 29/23 A2990 RMK AO2 SLP125 T02890233 $
KDTS 220053Z VRB05KT 10SM CLR 29/23 A2989 RMK AO2 SLP122 T02890228 $
KDTS 212353Z 26008KT 6SM HZ CLR 29/22 A2991 RMK AO2 SLP126 T02940222 10317 20294 51005 $
KDTS 212253Z 26007G15KT 230V300 10SM CLR 31/23 A2991 RMK AO2 SLP126 T03060228 $
KDTS 212153Z 24009G15KT 10SM CLR 31/23 A2990 RMK AO2 SLP123 T03110228 $
KDTS 212053Z 25009G15KT 10SM CLR 32/24 A2989 RMK AO2 SLP121 T03170244 56012 $
KDTS 211953Z 24008KT 10SM CLR 31/24 A2989 RMK AO2 SLP122 T03110239 $
KDTS 211853Z 25008KT 220V310 10SM CLR 31/24 A2990 RMK AO2 SLP126 T03110244 $
KDTS 211753Z 24008KT 210V270 10SM CLR 31/24 A2992 RMK AO2 SLP132 T03110244 10322 20283 58007 $
KDTS 211653Z VRB06KT 10SM CLR 31/23 A2994 RMK AO2 LTG DSNT W AND NW SLP138 T03060228 $
KDTS 211553Z 24008KT 10SM CLR 31/23 A2995 RMK AO2 SLP140 T03110233 $
KDTS 211453Z VRB06KT 10SM CLR 31/23 A2994 RMK AO2 SLP139 T03110233 58001 $
KDTS 211353Z VRB04KT 10SM SCT021 SCT034 30/24 A2995 RMK AO2 SLP141 T03000239 $
KDTS 211253Z 27007KT 10SM SCT019 SCT030 29/24 A2995 RMK AO2 SLP141 T02890244 $
KDTS 211248Z VRB04KT 10SM BKN019 BKN028 29/24 A2995 RMK AO2 $
KDTS 211153Z VRB04KT 10SM FEW019 28/24 A2994 RMK AO2 SLP137 T02830244 10283 20278 53010 $